sensor_id;sensor_type;location;lat;lon;timestamp;P1;durP1;ratioP1;P2;durP2;ratioP2
63653;SDS011;49809;47.418;19.080;2023-02-03T00:00:32;2.62;;;0.73;;
63653;SDS011;49809;47.418;19.080;2023-02-03T00:04:07;1.52;;;0.60;;
63653;SDS011;49809;47.418;19.080;2023-02-03T00:07:37;1.17;;;0.93;;
63653;SDS011;49809;47.418;19.080;2023-02-03T00:11:08;0.60;;;0.52;;
63653;SDS011;49809;47.418;19.080;2023-02-03T00:14:40;1.37;;;0.80;;
63653;SDS011;49809;47.418;19.080;2023-02-03T00:18:24;1.25;;;0.82;;
63653;SDS011;49809;47.418;19.080;2023-02-03T00:21:41;0.85;;;0.62;;
63653;SDS011;49809;47.418;19.080;2023-02-03T00:25:13;0.57;;;0.57;;
63653;SDS011;49809;47.418;19.080;2023-02-03T00:28:52;0.70;;;0.68;;
63653;SDS011;49809;47.418;19.080;2023-02-03T00:32:24;0.55;;;0.52;;
63653;SDS011;49809;47.418;19.080;2023-02-03T00:36:03;0.60;;;0.60;;
63653;SDS011;49809;47.418;19.080;2023-02-03T00:39:42;0.98;;;0.80;;
63653;SDS011;49809;47.418;19.080;2023-02-03T00:43:12;0.40;;;0.40;;
63653;SDS011;49809;47.418;19.080;2023-02-03T00:46:46;0.82;;;0.73;;
63653;SDS011;49809;47.418;19.080;2023-02-03T00:50:16;2.50;;;1.25;;
63653;SDS011;49809;47.418;19.080;2023-02-03T00:53:38;1.80;;;1.30;;
63653;SDS011;49809;47.418;19.080;2023-02-03T00:57:13;0.50;;;0.50;;
63653;SDS011;49809;47.418;19.080;2023-02-03T01:00:32;2.75;;;0.88;;
63653;SDS011;49809;47.418;19.080;2023-02-03T01:04:06;2.03;;;0.68;;
63653;SDS011;49809;47.418;19.080;2023-02-03T01:07:40;2.33;;;1.02;;
63653;SDS011;49809;47.418;19.080;2023-02-03T01:11:16;1.95;;;0.90;;
63653;SDS011;49809;47.418;19.080;2023-02-03T01:14:51;0.75;;;0.55;;
63653;SDS011;49809;47.418;19.080;2023-02-03T01:18:18;1.00;;;1.00;;
63653;SDS011;49809;47.418;19.080;2023-02-03T01:21:52;0.60;;;0.40;;
63653;SDS011;49809;47.418;19.080;2023-02-03T01:25:25;0.73;;;0.62;;
63653;SDS011;49809;47.418;19.080;2023-02-03T01:28:43;0.50;;;0.50;;
63653;SDS011;49809;47.418;19.080;2023-02-03T01:32:06;0.47;;;0.47;;
63653;SDS011;49809;47.418;19.080;2023-02-03T01:35:42;0.32;;;0.32;;
63653;SDS011;49809;47.418;19.080;2023-02-03T01:39:00;1.12;;;0.62;;
63653;SDS011;49809;47.418;19.080;2023-02-03T01:42:20;0.75;;;0.60;;
63653;SDS011;49809;47.418;19.080;2023-02-03T01:45:45;1.02;;;0.60;;
63653;SDS011;49809;47.418;19.080;2023-02-03T01:49:30;0.88;;;0.57;;
63653;SDS011;49809;47.418;19.080;2023-02-03T01:53:11;0.43;;;0.43;;
63653;SDS011;49809;47.418;19.080;2023-02-03T01:56:47;0.57;;;0.57;;
63653;SDS011;49809;47.418;19.080;2023-02-03T02:00:30;0.43;;;0.43;;
63653;SDS011;49809;47.418;19.080;2023-02-03T02:03:54;4.75;;;0.93;;
63653;SDS011;49809;47.418;19.080;2023-02-03T02:07:33;0.40;;;0.40;;
63653;SDS011;49809;47.418;19.080;2023-02-03T02:10:52;5.22;;;1.48;;
63653;SDS011;49809;47.418;19.080;2023-02-03T02:14:14;0.40;;;0.35;;
63653;SDS011;49809;47.418;19.080;2023-02-03T02:36:23;0.60;;;0.60;;
63653;SDS011;49809;47.418;19.080;2023-02-03T02:44:13;4.18;;;1.08;;
63653;SDS011;49809;47.418;19.080;2023-02-03T02:47:36;0.62;;;0.60;;
63653;SDS011;49809;47.418;19.080;2023-02-03T02:51:13;0.43;;;0.43;;
63653;SDS011;49809;47.418;19.080;2023-02-03T02:54:50;0.93;;;0.55;;
63653;SDS011;49809;47.418;19.080;2023-02-03T02:58:15;6.90;;;0.50;;
63653;SDS011;49809;47.418;19.080;2023-02-03T03:01:35;0.82;;;0.60;;
63653;SDS011;49809;47.418;19.080;2023-02-03T03:05:09;0.65;;;0.50;;
63653;SDS011;49809;47.418;19.080;2023-02-03T03:08:36;1.62;;;0.90;;
63653;SDS011;49809;47.418;19.080;2023-02-03T03:12:20;3.30;;;1.15;;
63653;SDS011;49809;47.418;19.080;2023-02-03T03:15:42;3.62;;;0.52;;
63653;SDS011;49809;47.418;19.080;2023-02-03T03:19:22;0.60;;;0.60;;
63653;SDS011;49809;47.418;19.080;2023-02-03T03:22:47;1.65;;;1.15;;
63653;SDS011;49809;47.418;19.080;2023-02-03T03:26:29;3.97;;;0.57;;
63653;SDS011;49809;47.418;19.080;2023-02-03T03:30:12;0.45;;;0.43;;
63653;SDS011;49809;47.418;19.080;2023-02-03T03:33:54;0.47;;;0.40;;
63653;SDS011;49809;47.418;19.080;2023-02-03T03:44:38;0.50;;;0.50;;
63653;SDS011;49809;47.418;19.080;2023-02-03T03:51:43;0.32;;;0.32;;
63653;SDS011;49809;47.418;19.080;2023-02-03T03:55:23;0.88;;;0.30;;
63653;SDS011;49809;47.418;19.080;2023-02-03T03:59:06;1.10;;;0.73;;
63653;SDS011;49809;47.418;19.080;2023-02-03T04:02:50;0.45;;;0.45;;
63653;SDS011;49809;47.418;19.080;2023-02-03T04:06:11;0.60;;;0.60;;
63653;SDS011;49809;47.418;19.080;2023-02-03T04:09:30;1.25;;;0.70;;
63653;SDS011;49809;47.418;19.080;2023-02-03T04:12:51;2.42;;;0.95;;
63653;SDS011;49809;47.418;19.080;2023-02-03T04:16:19;1.65;;;0.80;;
63653;SDS011;49809;47.418;19.080;2023-02-03T04:19:40;0.60;;;0.45;;
63653;SDS011;49809;47.418;19.080;2023-02-03T04:23:17;0.30;;;0.30;;
63653;SDS011;49809;47.418;19.080;2023-02-03T04:26:54;0.50;;;0.40;;
63653;SDS011;49809;47.418;19.080;2023-02-03T04:30:14;0.98;;;0.88;;
63653;SDS011;49809;47.418;19.080;2023-02-03T04:33:49;0.47;;;0.47;;
63653;SDS011;49809;47.418;19.080;2023-02-03T04:37:24;1.87;;;0.45;;
63653;SDS011;49809;47.418;19.080;2023-02-03T04:40:57;0.85;;;0.43;;
63653;SDS011;49809;47.418;19.080;2023-02-03T04:44:30;0.22;;;0.22;;
63653;SDS011;49809;47.418;19.080;2023-02-03T04:48:06;0.25;;;0.25;;
63653;SDS011;49809;47.418;19.080;2023-02-03T04:51:30;0.45;;;0.40;;
63653;SDS011;49809;47.418;19.080;2023-02-03T04:55:13;0.60;;;0.50;;
63653;SDS011;49809;47.418;19.080;2023-02-03T04:58:32;1.15;;;0.62;;
63653;SDS011;49809;47.418;19.080;2023-02-03T05:01:53;0.30;;;0.30;;
63653;SDS011;49809;47.418;19.080;2023-02-03T05:05:28;0.25;;;0.25;;
63653;SDS011;49809;47.418;19.080;2023-02-03T05:09:05;0.40;;;0.40;;
63653;SDS011;49809;47.418;19.080;2023-02-03T05:12:38;0.30;;;0.30;;
63653;SDS011;49809;47.418;19.080;2023-02-03T05:16:15;2.97;;;0.80;;
63653;SDS011;49809;47.418;19.080;2023-02-03T05:19:48;1.77;;;1.17;;
63653;SDS011;49809;47.418;19.080;2023-02-03T05:26:44;0.50;;;0.50;;
63653;SDS011;49809;47.418;19.080;2023-02-03T05:30:07;2.10;;;1.52;;
63653;SDS011;49809;47.418;19.080;2023-02-03T05:33:35;1.10;;;1.00;;
63653;SDS011;49809;47.418;19.080;2023-02-03T05:37:03;1.73;;;1.02;;
63653;SDS011;49809;47.418;19.080;2023-02-03T05:40:40;1.30;;;0.90;;
63653;SDS011;49809;47.418;19.080;2023-02-03T05:44:19;1.10;;;1.05;;
63653;SDS011;49809;47.418;19.080;2023-02-03T05:47:37;0.68;;;0.60;;
63653;SDS011;49809;47.418;19.080;2023-02-03T05:51:10;2.83;;;0.88;;
63653;SDS011;49809;47.418;19.080;2023-02-03T05:54:33;0.82;;;0.80;;
63653;SDS011;49809;47.418;19.080;2023-02-03T05:57:53;1.30;;;0.75;;
63653;SDS011;49809;47.418;19.080;2023-02-03T06:01:30;1.85;;;1.35;;
63653;SDS011;49809;47.418;19.080;2023-02-03T06:05:03;3.85;;;1.35;;
63653;SDS011;49809;47.418;19.080;2023-02-03T06:08:32;1.58;;;1.05;;
63653;SDS011;49809;47.418;19.080;2023-02-03T06:11:54;3.20;;;0.90;;
63653;SDS011;49809;47.418;19.080;2023-02-03T06:15:18;0.75;;;0.75;;
63653;SDS011;49809;47.418;19.080;2023-02-03T06:18:46;0.45;;;0.45;;
63653;SDS011;49809;47.418;19.080;2023-02-03T06:25:37;0.40;;;0.30;;
63653;SDS011;49809;47.418;19.080;2023-02-03T06:29:12;0.98;;;0.88;;
63653;SDS011;49809;47.418;19.080;2023-02-03T06:32:47;0.57;;;0.50;;
63653;SDS011;49809;47.418;19.080;2023-02-03T06:36:07;0.70;;;0.62;;
63653;SDS011;49809;47.418;19.080;2023-02-03T06:39:43;0.50;;;0.50;;
63653;SDS011;49809;47.418;19.080;2023-02-03T06:43:05;0.95;;;0.70;;
63653;SDS011;49809;47.418;19.080;2023-02-03T06:46:22;1.23;;;1.12;;
63653;SDS011;49809;47.418;19.080;2023-02-03T06:50:02;1.15;;;1.08;;
63653;SDS011;49809;47.418;19.080;2023-02-03T06:53:36;1.08;;;0.80;;
63653;SDS011;49809;47.418;19.080;2023-02-03T06:56:56;2.50;;;1.60;;
63653;SDS011;49809;47.418;19.080;2023-02-03T07:00:27;1.17;;;1.08;;
63653;SDS011;49809;47.418;19.080;2023-02-03T07:04:04;4.18;;;1.30;;
63653;SDS011;49809;47.418;19.080;2023-02-03T07:07:39;3.42;;;1.65;;
63653;SDS011;49809;47.418;19.080;2023-02-03T07:11:16;1.00;;;0.85;;
63653;SDS011;49809;47.418;19.080;2023-02-03T07:14:55;2.17;;;1.45;;
63653;SDS011;49809;47.418;19.080;2023-02-03T07:18:33;1.42;;;0.88;;
63653;SDS011;49809;47.418;19.080;2023-02-03T07:25:52;1.10;;;0.98;;
63653;SDS011;49809;47.418;19.080;2023-02-03T07:29:14;3.25;;;1.50;;
63653;SDS011;49809;47.418;19.080;2023-02-03T07:32:54;1.77;;;1.50;;
63653;SDS011;49809;47.418;19.080;2023-02-03T07:36:20;2.92;;;1.75;;
63653;SDS011;49809;47.418;19.080;2023-02-03T07:43:54;1.75;;;1.15;;
63653;SDS011;49809;47.418;19.080;2023-02-03T07:47:41;2.05;;;1.17;;
63653;SDS011;49809;47.418;19.080;2023-02-03T07:51:17;1.83;;;1.00;;
63653;SDS011;49809;47.418;19.080;2023-02-03T07:54:44;1.00;;;0.88;;
63653;SDS011;49809;47.418;19.080;2023-02-03T07:58:01;4.35;;;1.05;;
63653;SDS011;49809;47.418;19.080;2023-02-03T08:01:33;1.83;;;1.30;;
63653;SDS011;49809;47.418;19.080;2023-02-03T08:05:01;5.68;;;1.75;;
63653;SDS011;49809;47.418;19.080;2023-02-03T08:08:44;0.50;;;0.50;;
63653;SDS011;49809;47.418;19.080;2023-02-03T08:15:48;0.80;;;0.80;;
63653;SDS011;49809;47.418;19.080;2023-02-03T08:23:01;1.67;;;1.23;;
63653;SDS011;49809;47.418;19.080;2023-02-03T08:26:35;1.87;;;1.20;;
63653;SDS011;49809;47.418;19.080;2023-02-03T08:41:29;2.87;;;1.58;;
63653;SDS011;49809;47.418;19.080;2023-02-03T08:45:04;0.57;;;0.57;;
63653;SDS011;49809;47.418;19.080;2023-02-03T08:48:39;1.98;;;1.02;;
63653;SDS011;49809;47.418;19.080;2023-02-03T08:52:17;2.70;;;1.40;;
63653;SDS011;49809;47.418;19.080;2023-02-03T08:59:15;2.45;;;1.70;;
63653;SDS011;49809;47.418;19.080;2023-02-03T09:02:55;2.42;;;1.83;;
63653;SDS011;49809;47.418;19.080;2023-02-03T09:06:32;5.43;;;1.20;;
63653;SDS011;49809;47.418;19.080;2023-02-03T09:10:21;4.70;;;2.35;;
63653;SDS011;49809;47.418;19.080;2023-02-03T09:13:44;6.90;;;3.10;;
63653;SDS011;49809;47.418;19.080;2023-02-03T09:17:03;8.55;;;2.33;;
63653;SDS011;49809;47.418;19.080;2023-02-03T09:20:43;7.60;;;3.12;;
63653;SDS011;49809;47.418;19.080;2023-02-03T09:24:11;14.70;;;4.60;;
63653;SDS011;49809;47.418;19.080;2023-02-03T09:27:42;4.12;;;2.97;;
63653;SDS011;49809;47.418;19.080;2023-02-03T09:31:16;5.80;;;2.45;;
63653;SDS011;49809;47.418;19.080;2023-02-03T09:34:55;3.35;;;1.83;;
63653;SDS011;49809;47.418;19.080;2023-02-03T09:38:32;5.30;;;2.35;;
63653;SDS011;49809;47.418;19.080;2023-02-03T09:46:24;1.80;;;1.20;;
63653;SDS011;49809;47.418;19.080;2023-02-03T09:49:58;2.40;;;2.00;;
63653;SDS011;49809;47.418;19.080;2023-02-03T10:14:27;12.10;;;5.00;;
63653;SDS011;49809;47.418;19.080;2023-02-03T10:18:16;5.75;;;2.95;;
63653;SDS011;49809;47.418;19.080;2023-02-03T10:21:59;4.20;;;2.80;;
63653;SDS011;49809;47.418;19.080;2023-02-03T10:29:31;5.97;;;2.22;;
63653;SDS011;49809;47.418;19.080;2023-02-03T10:33:25;5.25;;;2.42;;
63653;SDS011;49809;47.418;19.080;2023-02-03T10:40:45;8.00;;;3.58;;
63653;SDS011;49809;47.418;19.080;2023-02-03T10:44:18;9.55;;;3.17;;
63653;SDS011;49809;47.418;19.080;2023-02-03T10:47:52;5.75;;;2.62;;
63653;SDS011;49809;47.418;19.080;2023-02-03T10:55:32;4.35;;;2.53;;
63653;SDS011;49809;47.418;19.080;2023-02-03T10:59:09;3.92;;;2.58;;
63653;SDS011;49809;47.418;19.080;2023-02-03T11:03:15;3.10;;;2.20;;
63653;SDS011;49809;47.418;19.080;2023-02-03T11:07:04;3.80;;;2.17;;
63653;SDS011;49809;47.418;19.080;2023-02-03T11:10:38;2.25;;;1.83;;
63653;SDS011;49809;47.418;19.080;2023-02-03T11:14:15;4.20;;;2.15;;
63653;SDS011;49809;47.418;19.080;2023-02-03T11:17:52;4.07;;;2.45;;
63653;SDS011;49809;47.418;19.080;2023-02-03T11:21:29;1.70;;;1.58;;
63653;SDS011;49809;47.418;19.080;2023-02-03T11:25:18;4.32;;;3.37;;
63653;SDS011;49809;47.418;19.080;2023-02-03T11:29:02;2.97;;;2.15;;
63653;SDS011;49809;47.418;19.080;2023-02-03T11:32:40;2.70;;;1.62;;
63653;SDS011;49809;47.418;19.080;2023-02-03T11:36:18;1.33;;;1.23;;
63653;SDS011;49809;47.418;19.080;2023-02-03T11:39:55;3.00;;;1.95;;
63653;SDS011;49809;47.418;19.080;2023-02-03T11:43:51;4.22;;;2.28;;
63653;SDS011;49809;47.418;19.080;2023-02-03T11:47:30;4.35;;;2.58;;
63653;SDS011;49809;47.418;19.080;2023-02-03T11:55:11;3.05;;;1.50;;
63653;SDS011;49809;47.418;19.080;2023-02-03T12:06:59;0.52;;;0.52;;
63653;SDS011;49809;47.418;19.080;2023-02-03T12:14:56;0.68;;;0.65;;
63653;SDS011;49809;47.418;19.080;2023-02-03T12:18:54;1.37;;;0.68;;
63653;SDS011;49809;47.418;19.080;2023-02-03T12:26:27;2.50;;;1.45;;
63653;SDS011;49809;47.418;19.080;2023-02-03T12:30:29;2.15;;;1.10;;
63653;SDS011;49809;47.418;19.080;2023-02-03T12:41:35;3.55;;;1.60;;
63653;SDS011;49809;47.418;19.080;2023-02-03T12:56:24;1.20;;;1.10;;
63653;SDS011;49809;47.418;19.080;2023-02-03T13:00:03;2.47;;;1.85;;
63653;SDS011;49809;47.418;19.080;2023-02-03T13:07:54;2.95;;;1.50;;
63653;SDS011;49809;47.418;19.080;2023-02-03T13:11:42;2.60;;;1.37;;
63653;SDS011;49809;47.418;19.080;2023-02-03T13:15:33;2.15;;;1.95;;
63653;SDS011;49809;47.418;19.080;2023-02-03T13:19:14;1.55;;;1.35;;
63653;SDS011;49809;47.418;19.080;2023-02-03T13:42:07;8.15;;;3.15;;
63653;SDS011;49809;47.418;19.080;2023-02-03T13:45:57;11.73;;;2.92;;
63653;SDS011;49809;47.418;19.080;2023-02-03T13:49:32;8.60;;;2.90;;
63653;SDS011;49809;47.418;19.080;2023-02-03T13:53:15;4.43;;;3.15;;
63653;SDS011;49809;47.418;19.080;2023-02-03T13:57:00;9.52;;;4.22;;
63653;SDS011;49809;47.418;19.080;2023-02-03T14:01:33;10.02;;;4.43;;
63653;SDS011;49809;47.418;19.080;2023-02-03T14:23:48;4.78;;;3.22;;
63653;SDS011;49809;47.418;19.080;2023-02-03T14:27:43;6.85;;;4.32;;
63653;SDS011;49809;47.418;19.080;2023-02-03T14:35:18;4.10;;;3.03;;
63653;SDS011;49809;47.418;19.080;2023-02-03T14:39:19;7.07;;;3.75;;
63653;SDS011;49809;47.418;19.080;2023-02-03T14:42:56;7.93;;;4.05;;
63653;SDS011;49809;47.418;19.080;2023-02-03T14:58:05;3.97;;;2.75;;
63653;SDS011;49809;47.418;19.080;2023-02-03T15:08:59;4.25;;;2.40;;
63653;SDS011;49809;47.418;19.080;2023-02-03T15:12:26;12.60;;;3.60;;
63653;SDS011;49809;47.418;19.080;2023-02-03T15:16:14;3.15;;;1.73;;
63653;SDS011;49809;47.418;19.080;2023-02-03T15:19:55;2.47;;;2.28;;
63653;SDS011;49809;47.418;19.080;2023-02-03T15:27:25;4.43;;;2.85;;
63653;SDS011;49809;47.418;19.080;2023-02-03T15:31:08;5.20;;;2.35;;
63653;SDS011;49809;47.418;19.080;2023-02-03T15:34:54;5.35;;;2.17;;
63653;SDS011;49809;47.418;19.080;2023-02-03T15:38:33;2.58;;;1.85;;
63653;SDS011;49809;47.418;19.080;2023-02-03T15:42:19;10.35;;;2.83;;
63653;SDS011;49809;47.418;19.080;2023-02-03T15:49:27;4.00;;;2.37;;
63653;SDS011;49809;47.418;19.080;2023-02-03T15:53:17;5.20;;;2.50;;
63653;SDS011;49809;47.418;19.080;2023-02-03T16:14:09;3.28;;;2.30;;
63653;SDS011;49809;47.418;19.080;2023-02-03T16:35:26;4.85;;;3.05;;
63653;SDS011;49809;47.418;19.080;2023-02-03T16:47:47;3.05;;;2.67;;
63653;SDS011;49809;47.418;19.080;2023-02-03T16:52:11;5.95;;;3.65;;
63653;SDS011;49809;47.418;19.080;2023-02-03T16:56:00;6.93;;;4.80;;
63653;SDS011;49809;47.418;19.080;2023-02-03T17:08:01;6.62;;;2.83;;
63653;SDS011;49809;47.418;19.080;2023-02-03T17:37:13;4.70;;;2.50;;
63653;SDS011;49809;47.418;19.080;2023-02-03T17:49:20;3.80;;;2.50;;
63653;SDS011;49809;47.418;19.080;2023-02-03T18:01:21;5.57;;;2.00;;
63653;SDS011;49809;47.418;19.080;2023-02-03T18:12:28;4.10;;;1.92;;
63653;SDS011;49809;47.418;19.080;2023-02-03T18:16:03;4.18;;;2.15;;
63653;SDS011;49809;47.418;19.080;2023-02-03T18:19:39;2.62;;;1.87;;
63653;SDS011;49809;47.418;19.080;2023-02-03T18:23:12;2.83;;;1.98;;
63653;SDS011;49809;47.418;19.080;2023-02-03T18:26:49;3.30;;;1.95;;
63653;SDS011;49809;47.418;19.080;2023-02-03T18:30:25;2.35;;;1.80;;
63653;SDS011;49809;47.418;19.080;2023-02-03T18:34:33;3.78;;;2.22;;
63653;SDS011;49809;47.418;19.080;2023-02-03T18:38:25;2.65;;;1.87;;
63653;SDS011;49809;47.418;19.080;2023-02-03T18:50:01;2.83;;;1.62;;
63653;SDS011;49809;47.418;19.080;2023-02-03T20:50:23;0.45;;;0.37;;
63653;SDS011;49809;47.418;19.080;2023-02-03T21:34:25;1.02;;;1.00;;
63653;SDS011;49809;47.418;19.080;2023-02-03T22:02:45;1.17;;;0.65;;
63653;SDS011;49809;47.418;19.080;2023-02-03T22:37:01;0.60;;;0.50;;
63653;SDS011;49809;47.418;19.080;2023-02-03T22:48:08;1.30;;;0.90;;
63653;SDS011;49809;47.418;19.080;2023-02-03T22:52:07;1.92;;;0.80;;
63653;SDS011;49809;47.418;19.080;2023-02-03T22:55:55;1.08;;;0.65;;
63653;SDS011;49809;47.418;19.080;2023-02-03T22:59:14;0.57;;;0.43;;
63653;SDS011;49809;47.418;19.080;2023-02-03T23:02:56;5.85;;;0.88;;
63653;SDS011;49809;47.418;19.080;2023-02-03T23:06:44;0.37;;;0.37;;
63653;SDS011;49809;47.418;19.080;2023-02-03T23:10:39;4.12;;;0.75;;
63653;SDS011;49809;47.418;19.080;2023-02-03T23:14:46;11.80;;;0.60;;
63653;SDS011;49809;47.418;19.080;2023-02-03T23:18:28;4.18;;;1.15;;
63653;SDS011;49809;47.418;19.080;2023-02-03T23:22:07;2.08;;;0.40;;
63653;SDS011;49809;47.418;19.080;2023-02-03T23:25:44;1.92;;;0.73;;
63653;SDS011;49809;47.418;19.080;2023-02-03T23:40:10;1.37;;;0.80;;
63653;SDS011;49809;47.418;19.080;2023-02-03T23:43:48;0.60;;;0.50;;
63653;SDS011;49809;47.418;19.080;2023-02-03T23:47:22;3.80;;;0.90;;
63653;SDS011;49809;47.418;19.080;2023-02-03T23:50:58;7.72;;;1.02;;
63653;SDS011;49809;47.418;19.080;2023-02-03T23:54:35;1.60;;;0.90;;
63653;SDS011;49809;47.418;19.080;2023-02-03T23:58:23;1.95;;;0.50;;
